createdAt,value
2022-08-31T00:00:33.956Z,91.60
2022-08-31T00:03:19.780Z,92.30
2022-08-31T00:05:48.410Z,92.50
2022-08-31T00:08:16.659Z,93.00
2022-08-31T00:10:46.632Z,93.00
2022-08-31T00:13:18.148Z,93.40
2022-08-31T00:15:46.673Z,93.60
2022-08-31T00:18:15.456Z,94.10
2022-08-31T00:20:44.623Z,94.30
2022-08-31T00:23:15.593Z,94.70
2022-08-31T00:25:47.607Z,94.90
2022-08-31T00:28:18.912Z,95.30
2022-08-31T00:30:49.361Z,95.70
2022-08-31T00:33:18.781Z,96.10
2022-08-31T00:35:47.015Z,96.20
2022-08-31T00:38:17.820Z,96.30
2022-08-31T00:40:47.741Z,96.70
2022-08-31T00:43:40.338Z,96.90
2022-08-31T00:46:10.113Z,97.20
2022-08-31T00:48:41.394Z,97.30
2022-08-31T00:51:11.146Z,97.40
2022-08-31T00:53:41.469Z,97.70
2022-08-31T00:56:09.985Z,98.00
2022-08-31T00:58:40.518Z,98.00
2022-08-31T01:01:09.953Z,98.00
2022-08-31T01:03:39.145Z,98.20
2022-08-31T01:06:09.899Z,98.60
2022-08-31T01:08:38.053Z,98.70
2022-08-31T01:11:06.218Z,99.00
2022-08-31T01:13:34.646Z,99.60
2022-08-31T01:16:09.119Z,99.60
2022-08-31T01:18:39.330Z,99.80
2022-08-31T01:21:20.672Z,99.90
2022-08-31T01:23:50.867Z,99.90
2022-08-31T01:26:23.325Z,99.90
2022-08-31T01:28:54.016Z,99.90
2022-08-31T01:31:27.347Z,99.90
2022-08-31T01:33:57.482Z,99.90
2022-08-31T01:36:27.114Z,99.90
2022-08-31T01:38:58.859Z,99.90
2022-08-31T01:41:27.062Z,99.90
2022-08-31T01:43:55.259Z,99.90
2022-08-31T01:46:24.325Z,99.90
2022-08-31T01:48:53.443Z,99.90
2022-08-31T01:51:22.745Z,99.90
2022-08-31T01:53:54.110Z,99.90
2022-08-31T01:56:26.712Z,99.90
2022-08-31T01:58:56.943Z,99.90
2022-08-31T02:01:45.734Z,99.90
2022-08-31T02:04:18.070Z,99.90
2022-08-31T02:06:49.246Z,99.90
2022-08-31T02:09:20.096Z,99.90
2022-08-31T02:11:49.679Z,99.90
2022-08-31T02:14:19.399Z,99.90
2022-08-31T02:16:49.144Z,99.90
2022-08-31T02:19:17.807Z,99.90
2022-08-31T02:21:46.023Z,99.90
2022-08-31T02:24:14.304Z,99.90
2022-08-31T02:26:42.436Z,99.90
2022-08-31T02:29:12.264Z,99.90
2022-08-31T02:31:40.652Z,99.90
2022-08-31T02:34:08.780Z,99.90
2022-08-31T02:39:26.163Z,99.90
2022-08-31T02:41:55.907Z,99.90
2022-08-31T02:44:25.566Z,99.90
2022-08-31T02:46:54.418Z,99.90
2022-08-31T02:49:42.802Z,99.90
2022-08-31T02:52:11.382Z,99.90
2022-08-31T02:54:39.518Z,99.90
2022-08-31T02:57:07.833Z,99.90
2022-08-31T02:59:37.326Z,99.90
2022-08-31T03:02:05.830Z,99.90
2022-08-31T03:04:34.921Z,99.90
2022-08-31T03:07:04.060Z,99.90
2022-08-31T03:09:32.978Z,99.90
2022-08-31T03:12:03.672Z,99.90
2022-08-31T03:14:33.524Z,99.90
2022-08-31T03:17:02.937Z,99.90
2022-08-31T03:19:31.209Z,99.90
2022-08-31T03:21:59.374Z,99.90
2022-08-31T03:24:28.275Z,99.90
2022-08-31T03:26:57.392Z,99.90
2022-08-31T03:29:25.475Z,99.90
2022-08-31T03:32:17.488Z,99.90
2022-08-31T03:34:48.704Z,99.90
2022-08-31T03:37:16.723Z,99.90
2022-08-31T03:39:45.109Z,99.90
2022-08-31T03:42:14.167Z,99.90
2022-08-31T03:44:42.209Z,99.90
2022-08-31T03:47:21.573Z,99.90
2022-08-31T03:49:51.699Z,99.90
2022-08-31T03:52:24.064Z,99.90
2022-08-31T03:55:02.288Z,99.90
2022-08-31T03:57:31.478Z,99.90
2022-08-31T04:00:00.492Z,99.90
2022-08-31T04:05:55.510Z,99.90
2022-08-31T04:08:49.624Z,99.90
2022-08-31T04:11:52.143Z,99.90
2022-08-31T04:14:39.066Z,99.90
2022-08-31T04:17:26.285Z,99.90
2022-08-31T04:20:06.543Z,99.90
2022-08-31T04:22:44.336Z,99.90
2022-08-31T04:25:39.262Z,99.90
2022-08-31T04:28:09.790Z,99.90
2022-08-31T04:30:41.803Z,99.90
2022-08-31T04:33:11.491Z,99.90
2022-08-31T04:35:42.930Z,99.90
2022-08-31T04:38:12.469Z,99.90
2022-08-31T04:40:43.822Z,99.90
2022-08-31T04:43:12.647Z,99.90
2022-08-31T04:45:45.199Z,99.90
2022-08-31T04:48:15.867Z,99.90
2022-08-31T04:50:45.791Z,99.90
2022-08-31T04:53:14.505Z,99.90
2022-08-31T04:55:43.951Z,99.90
2022-08-31T04:58:14.151Z,99.90
2022-08-31T05:00:44.004Z,99.90
2022-08-31T05:03:15.579Z,99.90
2022-08-31T05:05:46.901Z,99.90
2022-08-31T05:08:15.167Z,99.90
2022-08-31T05:10:44.746Z,99.90
2022-08-31T05:13:14.062Z,99.90
2022-08-31T05:15:43.652Z,99.90
2022-08-31T05:18:16.126Z,99.90
2022-08-31T05:20:52.141Z,99.90
2022-08-31T05:23:20.754Z,99.90
2022-08-31T05:25:49.001Z,99.90
2022-08-31T05:28:23.705Z,99.90
2022-08-31T05:30:52.190Z,99.90
2022-08-31T05:33:39.463Z,99.90
2022-08-31T05:36:09.997Z,99.90
2022-08-31T05:38:41.080Z,99.90
2022-08-31T05:41:10.208Z,99.90
2022-08-31T05:43:39.638Z,99.90
2022-08-31T05:46:10.630Z,99.90
2022-08-31T05:48:40.135Z,99.90
2022-08-31T05:51:15.343Z,99.90
2022-08-31T05:53:44.638Z,99.90
2022-08-31T05:56:15.782Z,99.90
2022-08-31T05:58:49.913Z,99.90
2022-08-31T06:01:20.871Z,99.90
2022-08-31T06:04:03.921Z,99.90
2022-08-31T06:06:33.674Z,99.90
2022-08-31T06:09:01.721Z,99.90
2022-08-31T06:11:34.796Z,99.90
2022-08-31T06:14:05.613Z,99.90
2022-08-31T06:16:36.030Z,99.90
2022-08-31T06:19:07.129Z,99.90
2022-08-31T06:21:49.782Z,99.90
2022-08-31T06:24:27.319Z,99.90
2022-08-31T06:26:59.374Z,98.50
2022-08-31T06:29:35.459Z,95.50
2022-08-31T06:32:08.133Z,93.30
2022-08-31T06:34:39.883Z,91.90
2022-08-31T06:37:18.628Z,90.60
2022-08-31T06:40:15.988Z,89.40
2022-08-31T06:43:04.877Z,89.60
2022-08-31T06:45:53.317Z,90.20
2022-08-31T06:48:34.946Z,90.20
2022-08-31T06:51:04.658Z,90.30
2022-08-31T06:53:34.091Z,90.60
2022-08-31T06:56:26.901Z,90.90
2022-08-31T06:59:28.202Z,83.20
2022-08-31T07:02:17.900Z,75.00
2022-08-31T07:04:46.140Z,63.80
2022-08-31T07:07:14.383Z,58.60
2022-08-31T07:09:45.854Z,55.00
2022-08-31T07:12:14.532Z,53.40
2022-08-31T07:14:42.817Z,50.60
2022-08-31T07:17:21.201Z,46.50
2022-08-31T07:19:49.431Z,43.10
2022-08-31T07:22:19.119Z,39.00
2022-08-31T07:24:52.722Z,36.30
2022-08-31T07:27:21.068Z,34.50
2022-08-31T07:29:56.276Z,32.00
2022-08-31T07:32:25.192Z,30.80
2022-08-31T07:34:58.425Z,29.80
2022-08-31T07:37:49.907Z,29.40
2022-08-31T07:40:38.957Z,28.40
2022-08-31T07:43:12.502Z,27.50
2022-08-31T07:45:42.181Z,27.00
2022-08-31T07:48:15.946Z,26.50
2022-08-31T07:50:58.643Z,26.10
2022-08-31T07:53:57.819Z,26.00
2022-08-31T07:56:34.834Z,25.70
2022-08-31T07:59:12.520Z,25.30
2022-08-31T08:01:43.246Z,25.20
2022-08-31T08:04:15.787Z,25.00
2022-08-31T08:07:06.017Z,24.80
2022-08-31T08:10:00.348Z,24.40
2022-08-31T08:13:00.779Z,24.20
2022-08-31T08:15:57.603Z,23.80
2022-08-31T08:18:52.109Z,24.30
2022-08-31T08:21:25.471Z,24.80
2022-08-31T08:23:53.811Z,25.10
2022-08-31T08:26:44.517Z,25.30
2022-08-31T08:29:24.740Z,25.50
2022-08-31T08:31:54.489Z,25.70
2022-08-31T08:34:32.339Z,25.50
2022-08-31T08:37:02.525Z,25.60
2022-08-31T08:39:30.817Z,25.70
2022-08-31T08:42:15.412Z,25.90
2022-08-31T08:44:45.727Z,25.90
2022-08-31T08:47:20.940Z,26.30
2022-08-31T08:50:01.582Z,26.40
2022-08-31T08:52:33.192Z,26.20
2022-08-31T08:55:06.297Z,25.30
2022-08-31T08:57:39.085Z,24.90
2022-08-31T09:00:12.204Z,24.10
2022-08-31T09:02:58.323Z,23.70
2022-08-31T09:05:59.180Z,23.40
2022-08-31T09:09:08.563Z,23.60
2022-08-31T09:11:53.080Z,23.20
2022-08-31T09:14:33.892Z,22.60
2022-08-31T09:17:16.884Z,22.20
2022-08-31T09:20:02.391Z,22.00
2022-08-31T09:22:35.323Z,22.00
2022-08-31T09:25:05.407Z,21.50
2022-08-31T09:27:58.077Z,21.70
2022-08-31T09:30:40.961Z,21.60
2022-08-31T09:33:18.473Z,21.30
2022-08-31T09:35:48.209Z,21.20
2022-08-31T09:38:29.038Z,21.20
2022-08-31T09:40:58.360Z,21.20
2022-08-31T09:43:35.057Z,21.10
2022-08-31T09:46:07.351Z,21.10
2022-08-31T09:48:46.409Z,20.60
2022-08-31T09:51:24.462Z,20.90
2022-08-31T09:54:10.326Z,21.20
2022-08-31T09:56:56.282Z,21.30
2022-08-31T09:59:38.714Z,21.10
2022-08-31T10:02:11.265Z,20.90
2022-08-31T10:04:52.259Z,21.00
2022-08-31T10:07:37.719Z,21.10
2022-08-31T10:10:28.001Z,20.70
2022-08-31T10:13:03.846Z,20.70
2022-08-31T10:15:39.395Z,20.70
2022-08-31T10:18:13.955Z,20.60
2022-08-31T10:20:49.482Z,20.40
2022-08-31T10:23:22.471Z,20.40
2022-08-31T10:25:57.512Z,20.60
2022-08-31T10:28:34.224Z,20.50
2022-08-31T10:31:04.605Z,20.20
2022-08-31T10:33:53.257Z,20.20
2022-08-31T10:36:25.246Z,19.90
2022-08-31T10:38:57.021Z,20.00
2022-08-31T10:41:30.779Z,19.70
2022-08-31T10:44:05.200Z,19.70
2022-08-31T10:46:35.480Z,19.40
2022-08-31T10:49:06.291Z,19.70
2022-08-31T10:51:42.213Z,19.80
2022-08-31T10:54:29.045Z,19.70
2022-08-31T10:57:06.517Z,19.60
2022-08-31T10:59:40.020Z,19.60
2022-08-31T11:02:31.162Z,19.70
2022-08-31T11:05:10.630Z,19.50
2022-08-31T11:07:50.877Z,19.40
2022-08-31T11:10:27.990Z,19.60
2022-08-31T11:13:00.869Z,19.70
2022-08-31T11:15:50.658Z,19.70
2022-08-31T11:19:05.004Z,19.90
2022-08-31T11:22:10.673Z,19.80
2022-08-31T11:25:13.821Z,19.40
2022-08-31T11:27:45.396Z,19.70
2022-08-31T11:30:24.379Z,19.60
2022-08-31T11:32:55.495Z,19.30
2022-08-31T11:36:02.719Z,19.40
2022-08-31T11:38:49.175Z,19.30
2022-08-31T11:41:41.271Z,19.40
2022-08-31T11:44:11.701Z,19.40
2022-08-31T11:47:01.062Z,19.40
2022-08-31T11:49:44.251Z,19.10
2022-08-31T11:52:34.527Z,19.20
2022-08-31T11:55:31.675Z,19.40
2022-08-31T11:58:25.869Z,19.50
2022-08-31T12:01:21.102Z,19.50
2022-08-31T12:03:55.671Z,19.50
2022-08-31T12:07:11.211Z,19.90
2022-08-31T12:10:09.473Z,19.60
2022-08-31T12:12:59.783Z,20.10
2022-08-31T12:15:40.994Z,20.10
2022-08-31T12:18:30.223Z,20.10
2022-08-31T12:21:25.319Z,20.00
2022-08-31T12:24:03.553Z,20.00
2022-08-31T12:26:50.321Z,19.80
2022-08-31T12:29:26.118Z,20.00
2022-08-31T12:32:21.369Z,20.00
2022-08-31T12:34:56.275Z,19.90
2022-08-31T12:37:27.002Z,19.80
2022-08-31T12:40:12.187Z,19.60
2022-08-31T12:42:43.635Z,20.30
2022-08-31T12:45:16.105Z,20.00
2022-08-31T12:47:55.386Z,19.90
2022-08-31T12:50:29.629Z,20.10
2022-08-31T12:53:36.330Z,20.40
2022-08-31T12:56:15.094Z,20.40
2022-08-31T12:59:04.363Z,20.80
2022-08-31T13:01:33.530Z,21.00
2022-08-31T13:04:04.393Z,20.70
2022-08-31T13:06:36.107Z,20.70
2022-08-31T13:09:06.095Z,20.70
2022-08-31T13:11:41.068Z,20.70
2022-08-31T13:14:18.595Z,20.90
2022-08-31T13:16:49.501Z,21.00
2022-08-31T13:19:25.679Z,21.10
2022-08-31T13:21:57.377Z,21.10
2022-08-31T13:24:32.243Z,21.60
2022-08-31T13:27:09.079Z,22.00
2022-08-31T13:29:45.051Z,22.80
2022-08-31T13:32:32.637Z,23.40
2022-08-31T13:35:05.884Z,24.20
2022-08-31T13:37:38.988Z,24.90
2022-08-31T13:40:12.075Z,25.60
2022-08-31T13:42:43.876Z,26.10
2022-08-31T13:45:26.305Z,26.80
2022-08-31T13:47:58.067Z,27.20
2022-08-31T13:50:33.347Z,27.70
2022-08-31T13:53:25.833Z,27.50
2022-08-31T13:55:53.535Z,27.70
2022-08-31T13:58:30.030Z,28.30
2022-08-31T14:01:19.892Z,28.60
2022-08-31T14:03:57.406Z,28.80
2022-08-31T14:06:33.855Z,29.20
2022-08-31T14:09:05.418Z,30.00
2022-08-31T14:11:35.615Z,29.80
2022-08-31T14:14:07.509Z,30.00
2022-08-31T14:16:38.494Z,29.90
2022-08-31T14:19:10.861Z,30.30
2022-08-31T14:21:43.516Z,30.40
2022-08-31T14:24:12.937Z,30.90
2022-08-31T14:26:43.455Z,30.70
2022-08-31T14:29:14.023Z,30.80
2022-08-31T14:31:48.387Z,31.70
2022-08-31T14:34:32.433Z,31.70
2022-08-31T14:37:06.430Z,31.90
2022-08-31T14:39:37.458Z,32.10
2022-08-31T14:42:08.527Z,32.90
2022-08-31T14:44:39.596Z,33.20
2022-08-31T14:47:09.672Z,33.30
2022-08-31T14:49:39.054Z,33.60
2022-08-31T14:52:10.099Z,33.90
2022-08-31T14:54:38.736Z,33.90
2022-08-31T14:57:11.711Z,33.90
2022-08-31T14:59:44.661Z,33.90
2022-08-31T15:02:17.018Z,34.80
2022-08-31T15:04:45.750Z,34.80
2022-08-31T15:07:17.631Z,34.60
2022-08-31T15:09:50.097Z,34.90
2022-08-31T15:12:19.101Z,35.20
2022-08-31T15:14:50.259Z,35.40
2022-08-31T15:17:21.778Z,35.00
2022-08-31T15:19:55.968Z,35.10
2022-08-31T15:22:26.273Z,35.80
2022-08-31T15:24:55.430Z,36.10
2022-08-31T15:27:28.774Z,35.70
2022-08-31T15:30:02.640Z,36.00
2022-08-31T15:32:31.450Z,35.40
2022-08-31T15:35:00.175Z,35.50
2022-08-31T15:37:32.801Z,36.50
2022-08-31T15:40:03.682Z,36.30
2022-08-31T15:42:39.601Z,36.90
2022-08-31T15:45:09.171Z,37.40
2022-08-31T15:47:57.293Z,37.10
2022-08-31T15:50:32.122Z,37.30
2022-08-31T15:53:09.016Z,37.10
2022-08-31T15:55:38.830Z,37.50
2022-08-31T15:58:08.791Z,37.60
2022-08-31T16:00:37.797Z,38.00
2022-08-31T16:03:06.204Z,37.90
2022-08-31T16:05:39.517Z,38.40
2022-08-31T16:08:12.501Z,38.00
2022-08-31T16:10:45.367Z,37.80
2022-08-31T16:13:15.698Z,37.90
2022-08-31T16:15:51.173Z,38.20
2022-08-31T16:18:21.409Z,38.20
2022-08-31T16:20:50.560Z,38.70
2022-08-31T16:23:21.039Z,38.40
2022-08-31T16:25:49.840Z,38.30
2022-08-31T16:28:20.818Z,38.60
2022-08-31T16:30:51.269Z,39.50
2022-08-31T16:33:20.256Z,39.20
2022-08-31T16:35:48.572Z,39.30
2022-08-31T16:38:16.813Z,39.60
2022-08-31T16:40:46.502Z,39.80
2022-08-31T16:43:14.803Z,40.10
2022-08-31T16:45:43.401Z,40.20
2022-08-31T16:48:29.497Z,40.50
2022-08-31T16:51:01.981Z,41.30
2022-08-31T16:53:31.278Z,41.70
2022-08-31T16:56:03.192Z,41.70
2022-08-31T16:58:52.356Z,41.90
2022-08-31T17:01:23.974Z,41.90
2022-08-31T17:03:54.338Z,42.40
2022-08-31T17:06:22.782Z,42.10
2022-08-31T17:08:54.654Z,42.80
2022-08-31T17:11:30.507Z,42.80
2022-08-31T17:14:01.834Z,42.90
2022-08-31T17:16:32.336Z,43.20
2022-08-31T17:19:02.185Z,43.10
2022-08-31T17:21:33.373Z,43.20
2022-08-31T17:24:04.224Z,43.50
2022-08-31T17:26:35.043Z,43.50
2022-08-31T17:29:06.394Z,44.60
2022-08-31T17:31:42.180Z,44.30
2022-08-31T17:34:12.263Z,44.80
2022-08-31T17:36:41.078Z,44.90
2022-08-31T17:39:10.517Z,45.60
2022-08-31T17:41:41.119Z,45.80
2022-08-31T17:44:12.996Z,46.00
2022-08-31T17:46:41.162Z,46.00
2022-08-31T17:49:09.336Z,46.00
2022-08-31T17:51:37.470Z,46.20
2022-08-31T17:54:10.794Z,46.40
2022-08-31T17:56:47.620Z,46.40
2022-08-31T17:59:18.595Z,47.80
2022-08-31T18:01:48.677Z,47.70
2022-08-31T18:04:17.858Z,48.10
2022-08-31T18:06:46.479Z,48.30
2022-08-31T18:09:16.485Z,47.90
2022-08-31T18:11:46.278Z,48.50
2022-08-31T18:14:15.274Z,49.10
2022-08-31T18:16:44.351Z,49.40
2022-08-31T18:19:13.362Z,49.10
2022-08-31T18:21:42.372Z,49.40
2022-08-31T18:24:14.204Z,49.60
2022-08-31T18:26:48.087Z,50.40
2022-08-31T18:29:19.614Z,50.90
2022-08-31T18:31:52.879Z,50.80
2022-08-31T18:34:23.166Z,51.70
2022-08-31T18:36:52.053Z,51.20
2022-08-31T18:39:47.546Z,51.70
2022-08-31T18:42:32.251Z,51.20
2022-08-31T18:45:19.798Z,51.50
2022-08-31T18:48:47.564Z,52.00
2022-08-31T18:50:44.283Z,52.40
2022-08-31T18:53:15.461Z,52.60
2022-08-31T18:55:59.803Z,52.90
2022-08-31T18:58:30.051Z,53.20
2022-08-31T19:00:59.443Z,53.30
2022-08-31T19:03:31.114Z,53.60
2022-08-31T19:05:59.255Z,53.90
2022-08-31T19:08:29.150Z,54.30
2022-08-31T19:10:58.055Z,54.60
2022-08-31T19:13:31.595Z,54.80
2022-08-31T19:16:16.079Z,55.20
2022-08-31T19:18:45.855Z,55.60
2022-08-31T19:21:17.148Z,56.00
2022-08-31T19:23:45.643Z,56.60
2022-08-31T19:26:20.628Z,56.60
2022-08-31T19:28:50.238Z,57.10
2022-08-31T19:31:21.217Z,57.30
2022-08-31T19:33:56.101Z,57.70
2022-08-31T19:36:24.583Z,57.70
2022-08-31T19:38:54.105Z,57.90
2022-08-31T19:41:24.894Z,58.00
2022-08-31T19:44:03.126Z,58.30
2022-08-31T19:46:38.583Z,58.50
2022-08-31T19:49:09.640Z,58.90
2022-08-31T19:51:39.272Z,59.00
2022-08-31T19:54:09.064Z,59.10
2022-08-31T19:56:39.637Z,59.20
2022-08-31T19:59:08.147Z,59.30
2022-08-31T20:01:40.255Z,59.50
2022-08-31T20:04:14.458Z,59.50
2022-08-31T20:06:46.174Z,59.80
2022-08-31T20:09:14.961Z,60.00
2022-08-31T20:11:43.362Z,60.00
2022-08-31T20:14:13.279Z,60.30
2022-08-31T20:16:43.538Z,60.50
2022-08-31T20:19:18.950Z,60.90
2022-08-31T20:21:53.130Z,61.90
2022-08-31T20:24:24.443Z,61.60
2022-08-31T20:26:55.463Z,61.80
2022-08-31T20:29:25.290Z,62.10
2022-08-31T20:31:56.060Z,62.60
2022-08-31T20:34:28.022Z,62.90
2022-08-31T20:37:01.165Z,62.90
2022-08-31T20:39:32.599Z,63.30
2022-08-31T20:42:03.098Z,63.50
2022-08-31T20:44:34.956Z,64.00
2022-08-31T20:47:24.729Z,64.30
2022-08-31T20:49:54.871Z,64.70
2022-08-31T20:52:25.918Z,65.40
2022-08-31T20:55:01.894Z,65.90
2022-08-31T20:57:32.115Z,66.70
2022-08-31T21:00:03.295Z,67.00
2022-08-31T21:02:34.075Z,68.70
2022-08-31T21:05:34.006Z,69.40
2022-08-31T21:07:50.638Z,69.70
2022-08-31T21:10:32.555Z,70.10
2022-08-31T21:13:08.869Z,70.30
2022-08-31T21:15:41.957Z,70.80
2022-08-31T21:18:12.387Z,71.40
2022-08-31T21:20:41.015Z,71.90
2022-08-31T21:23:10.586Z,72.70
2022-08-31T21:25:44.012Z,73.20
2022-08-31T21:28:15.719Z,73.50
2022-08-31T21:30:46.729Z,74.50
2022-08-31T21:33:16.430Z,74.80
2022-08-31T21:35:44.483Z,75.30
2022-08-31T21:38:13.542Z,76.10
2022-08-31T21:40:49.022Z,76.90
2022-08-31T21:43:17.313Z,77.50
2022-08-31T21:45:45.619Z,78.00
2022-08-31T21:48:13.706Z,79.30
2022-08-31T21:50:43.944Z,79.60
2022-08-31T21:53:12.770Z,80.20
2022-08-31T21:55:41.124Z,80.80
2022-08-31T21:58:12.095Z,81.50
2022-08-31T22:00:42.111Z,82.60
2022-08-31T22:03:10.856Z,83.00
2022-08-31T22:05:41.548Z,83.80
2022-08-31T22:08:11.301Z,84.20
2022-08-31T22:10:40.888Z,85.20
2022-08-31T22:13:11.459Z,86.10
2022-08-31T22:15:41.230Z,88.20
2022-08-31T22:18:58.419Z,88.00
2022-08-31T22:20:59.391Z,89.70
2022-08-31T22:23:29.056Z,90.30
2022-08-31T22:25:57.603Z,90.50
2022-08-31T22:28:27.468Z,90.80
2022-08-31T22:30:56.169Z,91.10
2022-08-31T22:33:24.369Z,91.40
2022-08-31T22:35:52.714Z,91.40
2022-08-31T22:38:21.191Z,91.60
2022-08-31T22:40:52.596Z,92.10
2022-08-31T22:43:20.881Z,92.30
2022-08-31T22:45:50.532Z,92.50
2022-08-31T22:48:19.251Z,92.90
2022-08-31T22:50:47.728Z,93.30
2022-08-31T22:53:16.072Z,93.40
2022-08-31T22:55:44.401Z,93.90
2022-08-31T22:58:14.308Z,94.50
2022-08-31T23:00:43.301Z,94.80
2022-08-31T23:03:14.182Z,95.40
2022-08-31T23:05:43.769Z,95.50
2022-08-31T23:08:12.577Z,95.80
2022-08-31T23:10:41.348Z,96.50
2022-08-31T23:13:09.509Z,96.40
2022-08-31T23:15:40.155Z,96.40
2022-08-31T23:18:10.051Z,96.90
2022-08-31T23:20:39.036Z,97.40
2022-08-31T23:23:07.335Z,97.40
2022-08-31T23:25:37.219Z,97.90
2022-08-31T23:28:05.346Z,98.00
2022-08-31T23:30:35.124Z,98.40
2022-08-31T23:33:04.697Z,98.70
2022-08-31T23:35:32.975Z,98.70
2022-08-31T23:38:01.602Z,99.10
2022-08-31T23:40:33.173Z,99.40
2022-08-31T23:43:01.913Z,99.70
2022-08-31T23:45:30.200Z,99.60
2022-08-31T23:47:58.553Z,99.90
2022-08-31T23:50:28.583Z,99.90
2022-08-31T23:52:57.515Z,99.90
2022-08-31T23:55:31.034Z,99.90
2022-08-31T23:57:59.421Z,99.90
